createdAt,value
2022-08-11T00:01:55.733Z,91.20
2022-08-11T00:04:27.700Z,91.20
2022-08-11T00:06:55.568Z,91.60
2022-08-11T00:09:31.580Z,91.80
2022-08-11T00:12:16.988Z,91.90
2022-08-11T00:14:45.233Z,91.30
2022-08-11T00:17:14.672Z,91.30
2022-08-11T00:20:12.187Z,91.40
2022-08-11T00:22:34.199Z,91.40
2022-08-11T00:25:10.683Z,91.60
2022-08-11T00:27:39.851Z,91.30
2022-08-11T00:30:09.315Z,91.20
2022-08-11T00:32:38.953Z,91.40
2022-08-11T00:35:54.534Z,91.70
2022-08-11T00:37:59.901Z,91.90
2022-08-11T00:40:52.095Z,91.80
2022-08-11T00:43:41.838Z,92.10
2022-08-11T00:46:11.392Z,92.60
2022-08-11T00:48:47.168Z,92.70
2022-08-11T00:52:05.204Z,92.60
2022-08-11T00:54:33.034Z,92.80
2022-08-11T00:57:37.256Z,93.00
2022-08-11T01:00:17.542Z,93.10
2022-08-11T01:03:03.747Z,93.30
2022-08-11T01:05:51.599Z,93.60
2022-08-11T01:09:02.768Z,93.50
2022-08-11T01:12:24.098Z,93.60
2022-08-11T01:15:24.765Z,94.00
2022-08-11T01:18:10.319Z,94.00
2022-08-11T01:20:58.657Z,93.90
2022-08-11T01:23:56.278Z,94.30
2022-08-11T01:26:57.529Z,94.60
2022-08-11T01:29:54.654Z,94.80
2022-08-11T01:32:58.796Z,95.20
2022-08-11T01:36:06.995Z,95.20
2022-08-11T01:38:52.592Z,95.90
2022-08-11T01:41:51.230Z,95.90
2022-08-11T01:44:46.730Z,95.90
2022-08-11T01:47:52.530Z,96.00
2022-08-11T01:50:57.916Z,95.90
2022-08-11T01:53:30.732Z,95.90
2022-08-11T01:56:21.461Z,96.10
2022-08-11T01:59:00.213Z,96.00
2022-08-11T02:01:46.891Z,96.40
2022-08-11T02:04:26.402Z,96.70
2022-08-11T02:07:21.637Z,96.90
2022-08-11T02:10:38.601Z,97.60
2022-08-11T02:13:47.449Z,97.80
2022-08-11T02:16:24.613Z,97.90
2022-08-11T02:19:19.318Z,98.40
2022-08-11T02:22:34.872Z,98.70
2022-08-11T02:25:10.374Z,98.80
2022-08-11T02:27:44.088Z,99.20
2022-08-11T02:30:16.366Z,99.40
2022-08-11T02:33:24.198Z,99.80
2022-08-11T02:36:08.765Z,99.90
2022-08-11T02:39:13.062Z,99.90
2022-08-11T02:41:58.453Z,99.90
2022-08-11T02:44:39.663Z,99.90
2022-08-11T02:47:25.613Z,99.90
2022-08-11T02:50:18.210Z,99.90
2022-08-11T02:52:52.389Z,99.90
2022-08-11T02:55:56.855Z,99.90
2022-08-11T02:58:30.919Z,99.90
2022-08-11T03:01:11.484Z,99.90
2022-08-11T03:04:05.700Z,99.90
2022-08-11T03:07:01.333Z,99.90
2022-08-11T03:09:44.008Z,99.90
2022-08-11T03:13:02.753Z,99.90
2022-08-11T03:16:05.296Z,99.90
2022-08-11T03:18:41.093Z,99.90
2022-08-11T03:22:02.921Z,99.90
2022-08-11T03:24:33.411Z,99.90
2022-08-11T03:27:27.385Z,99.90
2022-08-11T03:30:02.959Z,99.90
2022-08-11T03:33:23.651Z,99.90
2022-08-11T03:36:05.395Z,99.90
2022-08-11T03:39:03.006Z,99.90
2022-08-11T03:42:05.942Z,99.90
2022-08-11T03:44:59.940Z,99.90
2022-08-11T03:47:37.366Z,99.90
2022-08-11T03:50:24.116Z,99.90
2022-08-11T03:53:28.087Z,99.90
2022-08-11T03:56:13.585Z,99.90
2022-08-11T03:58:46.545Z,99.90
2022-08-11T04:01:19.905Z,99.90
2022-08-11T04:04:31.885Z,99.90
2022-08-11T04:07:35.575Z,99.90
2022-08-11T04:10:27.375Z,99.90
2022-08-11T04:13:05.663Z,99.90
2022-08-11T04:16:13.795Z,99.90
2022-08-11T04:18:43.559Z,99.90
2022-08-11T04:21:35.379Z,99.90
2022-08-11T04:24:35.707Z,99.90
2022-08-11T04:27:17.374Z,99.90
2022-08-11T04:30:09.137Z,99.90
2022-08-11T04:32:50.921Z,99.90
2022-08-11T04:35:57.985Z,99.90
2022-08-11T04:38:37.900Z,99.90
2022-08-11T04:41:28.019Z,99.90
2022-08-11T04:44:32.621Z,99.90
2022-08-11T04:48:03.357Z,99.90
2022-08-11T04:51:08.679Z,99.90
2022-08-11T04:54:34.419Z,99.90
2022-08-11T04:57:28.658Z,99.90
2022-08-11T05:00:16.733Z,99.90
2022-08-11T05:03:06.597Z,99.90
2022-08-11T05:05:56.278Z,99.90
2022-08-11T05:08:50.137Z,99.90
2022-08-11T05:11:44.923Z,99.90
2022-08-11T05:14:30.435Z,99.90
2022-08-11T05:17:27.519Z,99.90
2022-08-11T05:20:13.198Z,99.90
2022-08-11T05:23:06.268Z,99.90
2022-08-11T05:26:25.524Z,99.90
2022-08-11T05:29:19.530Z,99.90
2022-08-11T05:32:15.008Z,99.90
2022-08-11T05:34:55.355Z,99.90
2022-08-11T05:37:34.108Z,99.90
2022-08-11T05:40:31.574Z,99.90
2022-08-11T05:43:25.657Z,99.90
2022-08-11T05:46:26.159Z,99.90
2022-08-11T05:49:11.671Z,99.90
2022-08-11T05:52:05.569Z,99.90
2022-08-11T05:55:05.374Z,99.90
2022-08-11T05:57:49.765Z,99.90
2022-08-11T06:00:19.492Z,99.90
2022-08-11T06:02:55.290Z,99.90
2022-08-11T06:05:23.428Z,99.90
2022-08-11T06:07:57.088Z,99.90
2022-08-11T06:10:33.515Z,99.90
2022-08-11T06:13:04.992Z,99.90
2022-08-11T06:15:51.982Z,99.90
2022-08-11T06:18:19.772Z,99.90
2022-08-11T06:20:57.993Z,99.90
2022-08-11T06:23:32.247Z,99.90
2022-08-11T06:26:01.075Z,99.50
2022-08-11T06:28:38.968Z,99.20
2022-08-11T06:31:18.562Z,98.70
2022-08-11T06:33:51.170Z,98.40
2022-08-11T06:36:35.710Z,98.50
2022-08-11T06:39:13.782Z,97.70
2022-08-11T06:41:58.729Z,97.30
2022-08-11T06:44:33.532Z,96.80
2022-08-11T06:47:10.202Z,96.50
2022-08-11T06:50:17.576Z,96.00
2022-08-11T06:52:46.901Z,95.70
2022-08-11T06:55:57.979Z,95.30
2022-08-11T06:58:49.808Z,94.90
2022-08-11T07:01:49.596Z,94.60
2022-08-11T07:04:50.577Z,94.30
2022-08-11T07:08:33.538Z,93.40
2022-08-11T07:11:39.018Z,92.60
2022-08-11T07:14:26.211Z,90.30
2022-08-11T07:16:54.154Z,88.90
2022-08-11T07:19:47.367Z,86.70
2022-08-11T07:22:34.056Z,84.30
2022-08-11T07:25:32.124Z,82.90
2022-08-11T07:28:32.708Z,81.10
2022-08-11T07:31:06.987Z,79.70
2022-08-11T07:34:07.984Z,78.50
2022-08-11T07:36:42.731Z,77.20
2022-08-11T07:39:16.844Z,76.40
2022-08-11T07:41:47.447Z,75.90
2022-08-11T07:44:16.961Z,74.70
2022-08-11T07:47:04.797Z,74.10
2022-08-11T07:49:54.808Z,73.50
2022-08-11T07:52:34.186Z,72.40
2022-08-11T07:55:03.871Z,72.20
2022-08-11T07:58:16.424Z,71.20
2022-08-11T08:01:01.346Z,70.60
2022-08-11T08:03:54.019Z,69.10
2022-08-11T08:06:43.342Z,68.60
2022-08-11T08:09:32.003Z,67.40
2022-08-11T08:15:29.618Z,65.10
2022-08-11T08:18:09.190Z,63.60
2022-08-11T08:20:49.670Z,63.50
2022-08-11T08:23:33.316Z,62.60
2022-08-11T08:26:13.696Z,61.90
2022-08-11T08:28:46.589Z,61.20
2022-08-11T08:31:13.947Z,60.20
2022-08-11T08:33:41.761Z,59.50
2022-08-11T08:36:14.746Z,59.50
2022-08-11T08:38:47.018Z,59.40
2022-08-11T08:41:18.578Z,58.70
2022-08-11T08:43:52.618Z,59.30
2022-08-11T08:46:25.522Z,59.30
2022-08-11T08:48:53.755Z,58.70
2022-08-11T08:51:58.691Z,57.80
2022-08-11T08:54:40.661Z,56.90
2022-08-11T08:57:09.144Z,56.40
2022-08-11T08:59:48.987Z,56.50
2022-08-11T09:02:33.828Z,55.70
2022-08-11T09:05:03.635Z,55.90
2022-08-11T09:07:38.763Z,55.80
2022-08-11T09:10:13.442Z,56.20
2022-08-11T09:12:44.890Z,55.00
2022-08-11T09:15:19.616Z,54.40
2022-08-11T09:17:51.700Z,54.70
2022-08-11T09:20:26.554Z,53.60
2022-08-11T09:24:07.328Z,53.80
2022-08-11T09:26:30.793Z,53.90
2022-08-11T09:29:01.653Z,52.90
2022-08-11T09:31:38.993Z,53.70
2022-08-11T09:34:10.177Z,52.40
2022-08-11T09:36:58.330Z,52.50
2022-08-11T09:39:45.155Z,52.20
2022-08-11T09:42:16.607Z,52.00
2022-08-11T09:44:51.022Z,52.20
2022-08-11T09:47:31.645Z,52.10
2022-08-11T09:50:01.440Z,52.60
2022-08-11T09:52:36.604Z,52.30
2022-08-11T09:55:10.851Z,51.40
2022-08-11T09:58:03.507Z,50.20
2022-08-11T10:00:38.067Z,49.60
2022-08-11T10:03:09.802Z,49.50
2022-08-11T10:05:55.850Z,48.90
2022-08-11T10:08:28.209Z,47.60
2022-08-11T10:10:56.764Z,47.90
2022-08-11T10:14:03.775Z,48.10
2022-08-11T10:16:17.512Z,48.20
2022-08-11T10:18:52.597Z,48.10
2022-08-11T10:21:28.965Z,47.20
2022-08-11T10:24:18.989Z,47.30
2022-08-11T10:26:54.772Z,47.30
2022-08-11T10:29:44.367Z,47.10
2022-08-11T10:32:32.689Z,47.30
2022-08-11T10:35:09.260Z,47.20
2022-08-11T10:38:06.113Z,45.80
2022-08-11T10:40:32.698Z,46.30
2022-08-11T10:43:07.530Z,45.30
2022-08-11T10:45:55.911Z,46.20
2022-08-11T10:48:25.876Z,45.60
2022-08-11T10:51:12.856Z,45.90
2022-08-11T10:54:04.563Z,45.30
2022-08-11T10:56:53.545Z,45.60
2022-08-11T10:59:22.304Z,45.30
2022-08-11T11:01:53.273Z,45.10
2022-08-11T11:04:45.601Z,45.30
2022-08-11T11:07:21.143Z,44.20
2022-08-11T11:10:01.488Z,43.40
2022-08-11T11:12:46.784Z,43.70
2022-08-11T11:15:35.949Z,43.10
2022-08-11T11:18:33.528Z,43.30
2022-08-11T11:21:14.557Z,43.50
2022-08-11T11:23:47.336Z,43.00
2022-08-11T11:26:35.538Z,42.90
2022-08-11T11:29:20.915Z,43.30
2022-08-11T11:32:11.572Z,43.60
2022-08-11T11:35:15.957Z,42.80
2022-08-11T11:38:03.646Z,42.60
2022-08-11T11:40:32.313Z,42.90
2022-08-11T11:43:00.467Z,42.90
2022-08-11T11:45:29.965Z,42.50
2022-08-11T11:47:59.399Z,42.20
2022-08-11T11:50:31.840Z,42.10
2022-08-11T11:53:02.007Z,42.00
2022-08-11T11:55:30.557Z,42.70
2022-08-11T11:58:19.088Z,43.20
2022-08-11T12:01:05.995Z,41.50
2022-08-11T12:03:35.114Z,41.90
2022-08-11T12:06:07.017Z,42.20
2022-08-11T12:08:37.067Z,42.40
2022-08-11T12:11:27.490Z,41.90
2022-08-11T12:13:59.005Z,42.00
2022-08-11T12:16:33.251Z,42.20
2022-08-11T12:19:08.207Z,41.60
2022-08-11T12:21:36.700Z,41.40
2022-08-11T12:24:29.245Z,41.10
2022-08-11T12:27:17.719Z,41.00
2022-08-11T12:30:06.121Z,41.10
2022-08-11T12:32:37.446Z,40.80
2022-08-11T12:35:06.150Z,40.70
2022-08-11T12:38:12.950Z,40.70
2022-08-11T12:41:17.731Z,41.00
2022-08-11T12:44:06.506Z,39.80
2022-08-11T12:46:39.768Z,40.50
2022-08-11T12:49:31.514Z,40.50
2022-08-11T12:52:13.517Z,40.10
2022-08-11T12:55:02.305Z,39.60
2022-08-11T12:57:54.704Z,40.20
2022-08-11T13:00:41.732Z,39.80
2022-08-11T13:03:30.096Z,39.90
2022-08-11T13:06:02.694Z,39.50
2022-08-11T13:08:33.873Z,39.80
2022-08-11T13:11:20.029Z,39.70
2022-08-11T13:13:54.948Z,39.60
2022-08-11T13:16:31.856Z,39.40
2022-08-11T13:19:01.079Z,39.00
2022-08-11T13:21:31.307Z,38.60
2022-08-11T13:23:59.649Z,39.30
2022-08-11T13:26:43.577Z,39.40
2022-08-11T13:29:27.589Z,39.40
2022-08-11T13:31:59.684Z,38.10
2022-08-11T13:34:28.822Z,38.10
2022-08-11T13:37:00.064Z,37.60
2022-08-11T13:39:30.507Z,37.80
2022-08-11T13:42:01.542Z,38.30
2022-08-11T13:44:31.525Z,38.20
2022-08-11T13:47:06.992Z,38.00
2022-08-11T13:49:39.811Z,37.90
2022-08-11T13:52:19.721Z,38.10
2022-08-11T13:54:48.424Z,38.20
2022-08-11T13:58:07.305Z,38.10
2022-08-11T14:00:23.647Z,37.40
2022-08-11T14:02:56.923Z,37.00
2022-08-11T14:05:28.472Z,37.60
2022-08-11T14:08:32.408Z,37.40
2022-08-11T14:12:21.231Z,37.30
2022-08-11T14:14:13.702Z,37.30
2022-08-11T14:16:43.694Z,36.90
2022-08-11T14:19:14.430Z,36.90
2022-08-11T14:22:07.264Z,36.60
2022-08-11T14:24:41.044Z,36.90
2022-08-11T14:28:29.418Z,37.10
2022-08-11T14:29:59.690Z,36.90
2022-08-11T14:32:27.703Z,37.20
2022-08-11T14:34:58.765Z,37.00
2022-08-11T14:37:27.640Z,37.00
2022-08-11T14:40:02.935Z,36.50
2022-08-11T14:42:52.367Z,36.70
2022-08-11T14:45:57.475Z,37.10
2022-08-11T14:48:29.794Z,36.80
2022-08-11T14:50:56.875Z,36.30
2022-08-11T14:53:24.141Z,36.50
2022-08-11T14:56:10.471Z,36.80
2022-08-11T14:58:39.711Z,36.50
2022-08-11T15:01:26.765Z,36.40
2022-08-11T15:04:27.349Z,36.30
2022-08-11T15:06:41.314Z,35.50
2022-08-11T15:09:09.216Z,35.20
2022-08-11T15:11:57.159Z,35.70
2022-08-11T15:14:43.151Z,35.50
2022-08-11T15:17:13.464Z,35.70
2022-08-11T15:20:02.051Z,35.50
2022-08-11T15:22:47.636Z,35.60
2022-08-11T15:25:17.120Z,35.70
2022-08-11T15:28:06.619Z,35.60
2022-08-11T15:30:53.049Z,36.00
2022-08-11T15:33:40.575Z,36.00
2022-08-11T15:36:28.303Z,35.80
2022-08-11T15:39:07.606Z,35.40
2022-08-11T15:42:04.102Z,36.60
2022-08-11T15:45:04.167Z,35.00
2022-08-11T15:47:41.730Z,33.20
2022-08-11T15:50:14.270Z,31.10
2022-08-11T15:53:00.799Z,30.70
2022-08-11T15:55:34.613Z,31.20
2022-08-11T15:58:23.211Z,30.00
2022-08-11T16:01:09.732Z,29.30
2022-08-11T16:04:07.860Z,28.60
2022-08-11T16:06:57.012Z,28.40
2022-08-11T16:09:51.970Z,27.80
2022-08-11T16:12:28.292Z,27.70
2022-08-11T16:15:20.198Z,27.90
2022-08-11T16:18:05.032Z,27.60
2022-08-11T16:20:33.848Z,27.10
2022-08-11T16:23:03.776Z,26.20
2022-08-11T16:26:30.291Z,26.90
2022-08-11T16:28:23.181Z,26.50
2022-08-11T16:30:51.706Z,26.60
2022-08-11T16:33:49.137Z,26.20
2022-08-11T16:36:28.936Z,25.90
2022-08-11T16:38:57.152Z,26.00
2022-08-11T16:41:44.261Z,26.50
2022-08-11T16:44:37.298Z,25.90
2022-08-11T16:47:13.065Z,25.80
2022-08-11T16:49:53.217Z,25.70
2022-08-11T16:52:22.804Z,25.80
2022-08-11T16:54:50.089Z,25.80
2022-08-11T16:57:42.476Z,25.40
2022-08-11T17:00:14.954Z,25.80
2022-08-11T17:03:09.662Z,25.30
2022-08-11T17:06:00.751Z,25.30
2022-08-11T17:08:56.855Z,26.30
2022-08-11T17:11:45.992Z,26.50
2022-08-11T17:14:17.003Z,27.20
2022-08-11T17:16:46.265Z,26.50
2022-08-11T17:20:42.525Z,26.80
2022-08-11T17:22:27.656Z,26.00
2022-08-11T17:24:59.515Z,25.80
2022-08-11T17:27:30.151Z,25.40
2022-08-11T17:30:01.426Z,25.60
2022-08-11T17:33:00.736Z,25.90
2022-08-11T17:35:41.555Z,26.10
2022-08-11T17:38:24.418Z,25.80
2022-08-11T17:41:23.500Z,26.60
2022-08-11T17:44:10.489Z,26.60
2022-08-11T17:47:05.226Z,27.20
2022-08-11T17:49:37.447Z,27.00
2022-08-11T17:52:26.525Z,26.80
2022-08-11T17:55:14.439Z,26.30
2022-08-11T17:58:02.679Z,26.70
2022-08-11T18:00:35.171Z,27.00
2022-08-11T18:03:21.919Z,27.70
2022-08-11T18:05:49.791Z,28.10
2022-08-11T18:08:37.503Z,28.60
2022-08-11T18:12:05.812Z,29.10
2022-08-11T18:14:33.948Z,30.30
2022-08-11T18:17:19.467Z,32.00
2022-08-11T18:20:07.538Z,33.30
2022-08-11T18:22:58.842Z,34.10
2022-08-11T18:25:49.034Z,35.50
2022-08-11T18:28:40.250Z,37.20
2022-08-11T18:31:29.233Z,39.30
2022-08-11T18:34:19.266Z,40.50
2022-08-11T18:37:09.239Z,41.60
2022-08-11T18:40:08.697Z,42.20
2022-08-11T18:42:55.125Z,43.10
2022-08-11T18:45:45.720Z,44.20
2022-08-11T18:48:37.117Z,44.50
2022-08-11T18:51:30.584Z,45.50
2022-08-11T18:54:26.025Z,46.00
2022-08-11T18:57:13.625Z,46.40
2022-08-11T19:00:02.738Z,47.10
2022-08-11T19:02:50.736Z,46.90
2022-08-11T19:06:35.915Z,47.80
2022-08-11T19:08:58.375Z,48.10
2022-08-11T19:11:45.880Z,49.10
2022-08-11T19:14:33.225Z,49.30
2022-08-11T19:17:43.779Z,49.90
2022-08-11T19:20:34.556Z,50.00
2022-08-11T19:23:21.721Z,50.40
2022-08-11T19:26:07.632Z,50.90
2022-08-11T19:28:55.548Z,51.70
2022-08-11T19:31:44.835Z,52.10
2022-08-11T19:34:34.450Z,53.00
2022-08-11T19:37:24.801Z,54.00
2022-08-11T19:40:18.499Z,54.50
2022-08-11T19:43:14.910Z,55.00
2022-08-11T19:46:16.866Z,55.60
2022-08-11T19:49:04.977Z,55.60
2022-08-11T19:51:54.414Z,56.00
2022-08-11T19:54:47.102Z,56.10
2022-08-11T19:57:39.348Z,56.50
2022-08-11T20:00:29.835Z,56.70
2022-08-11T20:03:17.032Z,57.50
2022-08-11T20:06:03.628Z,57.50
2022-08-11T20:08:52.960Z,57.40
2022-08-11T20:11:41.556Z,57.70
2022-08-11T20:14:28.447Z,58.20
2022-08-11T20:17:25.523Z,59.20
2022-08-11T20:20:12.526Z,59.90
2022-08-11T20:22:59.147Z,59.90
2022-08-11T20:25:51.320Z,60.60
2022-08-11T20:28:45.052Z,60.00
2022-08-11T20:31:31.763Z,60.00
2022-08-11T20:34:21.855Z,60.20
2022-08-11T20:37:08.737Z,60.90
2022-08-11T20:39:57.456Z,61.10
2022-08-11T20:42:45.369Z,61.30
2022-08-11T20:45:35.267Z,61.60
2022-08-11T20:48:23.491Z,62.00
2022-08-11T20:51:09.729Z,62.60
2022-08-11T20:54:05.475Z,63.40
2022-08-11T20:56:54.278Z,64.30
2022-08-11T20:59:49.990Z,64.70
2022-08-11T21:02:44.553Z,65.80
2022-08-11T21:06:08.754Z,65.90
2022-08-11T21:11:47.446Z,65.20
2022-08-11T21:14:35.867Z,65.40
2022-08-11T21:17:27.699Z,65.20
2022-08-11T21:20:21.047Z,65.00
2022-08-11T21:23:23.969Z,65.60
2022-08-11T21:26:14.489Z,66.10
2022-08-11T21:29:00.817Z,65.60
2022-08-11T21:31:50.784Z,65.50
2022-08-11T21:34:39.653Z,66.40
2022-08-11T21:37:27.820Z,67.10
2022-08-11T21:40:17.449Z,67.30
2022-08-11T21:43:07.300Z,67.60
2022-08-11T21:45:55.243Z,67.70
2022-08-11T21:48:42.385Z,67.50
2022-08-11T21:51:27.839Z,68.10
2022-08-11T21:54:17.669Z,69.00
2022-08-11T21:57:05.079Z,69.50
2022-08-11T22:00:15.069Z,69.70
2022-08-11T22:03:05.541Z,70.80
2022-08-11T22:05:55.153Z,71.70
2022-08-11T22:08:40.699Z,70.90
2022-08-11T22:11:32.168Z,71.00
2022-08-11T22:14:21.385Z,70.80
2022-08-11T22:17:07.004Z,70.90
2022-08-11T22:19:55.512Z,71.10
2022-08-11T22:22:52.502Z,71.30
2022-08-11T22:25:50.847Z,71.60
2022-08-11T22:28:39.352Z,72.30
2022-08-11T22:31:28.923Z,72.80
2022-08-11T22:34:18.286Z,73.20
2022-08-11T22:37:04.967Z,73.30
2022-08-11T22:40:01.671Z,72.90
2022-08-11T22:42:52.052Z,72.90
2022-08-11T22:45:38.668Z,73.20
2022-08-11T22:48:27.743Z,73.90
2022-08-11T22:51:14.176Z,73.80
2022-08-11T22:54:00.276Z,74.30
2022-08-11T22:56:51.247Z,74.70
2022-08-11T22:59:40.125Z,75.10
2022-08-11T23:02:25.968Z,75.20
2022-08-11T23:05:15.166Z,75.50
2022-08-11T23:08:01.173Z,76.10
2022-08-11T23:10:46.756Z,76.00
2022-08-11T23:13:34.332Z,76.50
2022-08-11T23:16:22.297Z,76.70
2022-08-11T23:19:08.828Z,77.00
2022-08-11T23:21:56.130Z,77.10
2022-08-11T23:24:43.720Z,77.50
2022-08-11T23:27:30.064Z,78.30
2022-08-11T23:30:18.855Z,79.00
2022-08-11T23:33:11.115Z,78.90
2022-08-11T23:36:04.484Z,79.90
2022-08-11T23:38:52.077Z,80.20
2022-08-11T23:41:38.287Z,81.00
2022-08-11T23:44:25.581Z,82.00
2022-08-11T23:47:13.613Z,82.10
2022-08-11T23:50:01.330Z,82.30
2022-08-11T23:52:52.053Z,81.70
2022-08-11T23:55:38.364Z,82.00
2022-08-11T23:58:24.071Z,82.20
